createdAt,value
2022-08-22T00:00:37.723Z,97975.94
2022-08-22T00:03:02.140Z,98026.41
2022-08-22T00:03:02.740Z,98048.47
2022-08-22T00:03:07.953Z,98051.66
2022-08-22T00:05:57.826Z,97977.81
2022-08-22T00:08:46.024Z,97970.47
2022-08-22T00:11:12.851Z,97975.25
2022-08-22T00:13:39.485Z,97976.47
2022-08-22T00:16:16.478Z,97974.78
2022-08-22T00:19:21.095Z,97976.81
2022-08-22T00:22:18.523Z,97979.72
2022-08-22T00:24:47.908Z,97983.28
2022-08-22T00:27:23.689Z,97986.88
2022-08-22T00:30:11.251Z,97979.72
2022-08-22T00:32:50.880Z,97989.75
2022-08-22T00:35:24.095Z,97985.69
2022-08-22T00:38:19.321Z,97984.16
2022-08-22T00:41:01.618Z,97975.13
2022-08-22T00:43:41.513Z,97979.91
2022-08-22T00:46:32.348Z,97984.47
2022-08-22T00:49:14.576Z,97987.03
2022-08-22T00:52:14.343Z,97988.56
2022-08-22T00:54:47.466Z,97988.75
2022-08-22T00:57:14.070Z,97986.19
2022-08-22T01:00:01.767Z,97986.53
2022-08-22T01:02:51.845Z,97984.66
2022-08-22T01:05:41.741Z,97990.28
2022-08-22T01:08:32.478Z,97986.38
2022-08-22T01:11:16.644Z,97992.16
2022-08-22T01:13:46.390Z,97988.78
2022-08-22T01:16:31.336Z,97996.44
2022-08-22T01:19:21.890Z,97994.03
2022-08-22T01:22:26.439Z,97997.97
2022-08-22T01:25:14.668Z,97983.28
2022-08-22T01:28:25.432Z,97985.00
2022-08-22T01:31:10.371Z,97984.66
2022-08-22T01:34:04.514Z,97987.72
2022-08-22T01:36:46.608Z,97983.31
2022-08-22T01:39:31.510Z,97994.19
2022-08-22T01:42:41.991Z,97989.44
2022-08-22T01:45:14.410Z,97985.69
2022-08-22T01:47:59.148Z,97989.09
2022-08-22T01:50:35.532Z,97993.88
2022-08-22T01:53:10.996Z,97988.22
2022-08-22T01:55:54.624Z,97986.38
2022-08-22T01:58:28.518Z,97990.13
2022-08-22T02:01:08.682Z,97991.63
2022-08-22T02:03:51.908Z,97991.47
2022-08-22T02:06:36.074Z,97983.97
2022-08-22T02:09:09.028Z,97983.66
2022-08-22T02:11:45.044Z,97986.53
2022-08-22T02:14:21.447Z,97980.09
2022-08-22T02:16:56.207Z,97990.97
2022-08-22T02:19:39.960Z,97988.25
2022-08-22T02:22:32.993Z,97984.31
2022-08-22T02:25:13.713Z,97983.31
2022-08-22T02:28:01.216Z,97977.88
2022-08-22T02:30:44.681Z,97986.03
2022-08-22T02:33:32.649Z,97984.00
2022-08-22T02:36:14.441Z,97980.22
2022-08-22T02:38:52.898Z,97984.69
2022-08-22T02:41:31.852Z,97981.75
2022-08-22T02:44:26.590Z,97979.22
2022-08-22T02:47:06.227Z,97985.69
2022-08-22T02:49:32.667Z,97987.41
2022-08-22T02:52:12.963Z,97987.41
2022-08-22T02:55:06.654Z,97985.69
2022-08-22T02:57:45.216Z,97988.41
2022-08-22T03:00:33.002Z,97988.09
2022-08-22T03:02:59.976Z,97987.03
2022-08-22T03:05:38.746Z,97977.69
2022-08-22T03:08:08.164Z,97984.16
2022-08-22T03:10:44.277Z,97974.78
2022-08-22T03:13:31.239Z,97973.75
2022-08-22T03:16:35.147Z,97976.50
2022-08-22T03:19:31.955Z,97978.38
2022-08-22T03:22:06.405Z,97989.28
2022-08-22T03:24:51.591Z,97988.41
2022-08-22T03:27:32.846Z,97985.88
2022-08-22T03:30:11.305Z,97991.13
2022-08-22T03:32:48.781Z,97989.94
2022-08-22T03:35:41.510Z,97981.59
2022-08-22T03:38:39.902Z,97986.84
2022-08-22T03:41:12.572Z,97991.31
2022-08-22T03:43:51.764Z,97983.13
2022-08-22T03:46:57.188Z,97983.13
2022-08-22T03:50:01.154Z,97980.03
2022-08-22T03:53:02.371Z,97981.75
2022-08-22T03:55:47.527Z,97980.56
2022-08-22T03:58:19.183Z,97975.78
2022-08-22T04:01:22.209Z,97972.72
2022-08-22T04:04:10.559Z,97972.41
2022-08-22T04:07:28.384Z,97978.38
2022-08-22T04:10:03.401Z,97975.44
2022-08-22T04:12:33.103Z,97984.13
2022-08-22T04:15:26.162Z,97980.03
2022-08-22T04:18:24.157Z,97983.09
2022-08-22T04:20:56.792Z,97977.97
2022-08-22T04:23:40.400Z,97989.88
2022-08-22T04:26:21.363Z,97990.38
2022-08-22T04:28:53.739Z,97988.16
2022-08-22T04:31:32.295Z,97985.59
2022-08-22T04:34:10.819Z,97978.59
2022-08-22T04:36:50.156Z,97990.84
2022-08-22T04:39:40.198Z,97987.56
2022-08-22T04:42:32.375Z,97994.75
2022-08-22T04:45:34.583Z,98000.50
2022-08-22T04:48:10.185Z,98003.91
2022-08-22T04:50:43.122Z,98005.97
2022-08-22T04:54:04.475Z,98003.53
2022-08-22T04:56:55.731Z,98014.09
2022-08-22T04:59:25.176Z,98013.97
2022-08-22T05:01:58.682Z,98019.06
2022-08-22T05:04:33.129Z,98015.81
2022-08-22T05:07:13.000Z,98016.97
2022-08-22T05:09:45.262Z,98024.63
2022-08-22T05:12:16.399Z,98020.50
2022-08-22T05:14:51.908Z,98022.03
2022-08-22T05:17:29.190Z,98029.19
2022-08-22T05:25:11.081Z,98040.28
2022-08-22T05:30:13.267Z,98044.06
2022-08-22T05:32:52.330Z,98048.66
2022-08-22T05:35:23.375Z,98057.88
2022-08-22T05:37:55.262Z,98060.63
2022-08-22T05:40:33.448Z,98055.16
2022-08-22T05:43:00.218Z,98056.00
2022-08-22T05:45:28.376Z,98065.91
2022-08-22T05:48:03.288Z,98061.47
2022-08-22T05:50:41.358Z,98066.75
2022-08-22T05:53:14.490Z,98067.41
2022-08-22T05:55:59.043Z,98070.81
2022-08-22T05:58:28.647Z,98078.19
2022-08-22T06:01:09.906Z,98071.50
2022-08-22T06:03:57.116Z,98067.75
2022-08-22T06:06:27.498Z,98067.38
2022-08-22T06:09:13.027Z,98071.47
2022-08-22T06:11:52.171Z,98074.00
2022-08-22T06:14:42.358Z,98072.81
2022-08-22T06:17:19.405Z,98070.75
2022-08-22T06:19:50.193Z,98074.34
2022-08-22T06:22:25.834Z,98068.19
2022-08-22T06:24:57.864Z,98069.03
2022-08-22T06:27:31.171Z,98068.88
2022-08-22T06:30:01.655Z,98069.53
2022-08-22T06:32:58.908Z,98074.94
2022-08-22T06:35:52.297Z,98084.03
2022-08-22T06:38:21.624Z,98085.03
2022-08-22T06:40:54.430Z,98085.03
2022-08-22T06:43:24.756Z,98084.03
2022-08-22T06:45:53.358Z,98086.94
2022-08-22T06:48:23.773Z,98085.88
2022-08-22T06:50:56.178Z,98087.75
2022-08-22T06:53:35.966Z,98091.34
2022-08-22T06:56:07.118Z,98085.88
2022-08-22T06:58:41.689Z,98084.19
2022-08-22T07:01:14.471Z,98089.81
2022-08-22T07:03:47.677Z,98089.66
2022-08-22T07:06:22.963Z,98088.44
2022-08-22T07:08:53.993Z,98097.47
2022-08-22T07:11:28.081Z,98094.41
2022-08-22T07:14:14.093Z,98091.00
2022-08-22T07:16:44.854Z,98089.78
2022-08-22T07:19:35.331Z,98083.13
2022-08-22T07:22:16.157Z,98088.03
2022-08-22T07:24:50.995Z,98087.69
2022-08-22T07:27:45.492Z,98091.59
2022-08-22T07:30:27.899Z,98093.63
2022-08-22T07:33:25.937Z,98084.03
2022-08-22T07:35:59.176Z,98090.47
2022-08-22T07:38:42.679Z,98093.63
2022-08-22T07:41:23.793Z,98082.25
2022-08-22T07:43:56.469Z,98084.75
2022-08-22T07:46:32.950Z,98085.31
2022-08-22T07:49:14.359Z,98073.75
2022-08-22T07:51:52.156Z,98083.25
2022-08-22T07:55:00.582Z,98086.00
2022-08-22T07:57:36.246Z,98093.28
2022-08-22T08:00:11.434Z,98087.44
2022-08-22T08:02:45.141Z,98089.97
2022-08-22T08:05:13.841Z,98087.22
2022-08-22T08:07:48.292Z,98089.78
2022-08-22T08:10:24.355Z,98090.84
2022-08-22T08:13:02.172Z,98099.41
2022-08-22T08:15:33.871Z,98099.59
2022-08-22T08:18:06.175Z,98099.25
2022-08-22T08:20:37.003Z,98096.50
2022-08-22T08:23:10.287Z,98091.38
2022-08-22T08:25:53.756Z,98100.72
2022-08-22T08:28:33.960Z,98100.31
2022-08-22T08:31:16.155Z,98102.44
2022-08-22T08:33:46.984Z,98112.81
2022-08-22T08:36:34.713Z,98109.28
2022-08-22T08:39:17.139Z,98108.31
2022-08-22T08:41:54.303Z,98103.41
2022-08-22T08:44:23.657Z,98110.44
2022-08-22T08:47:08.247Z,98101.94
2022-08-22T08:49:56.884Z,98103.16
2022-08-22T08:52:32.515Z,98102.19
2022-08-22T08:55:24.678Z,98097.63
2022-08-22T08:58:03.349Z,98108.44
2022-08-22T09:00:46.066Z,98093.44
2022-08-22T09:03:48.453Z,98101.69
2022-08-22T09:06:44.071Z,98088.69
2022-08-22T09:09:56.539Z,98081.84
2022-08-22T09:12:36.554Z,98088.84
2022-08-22T09:15:58.613Z,98098.03
2022-08-22T09:18:51.113Z,98112.03
2022-08-22T09:21:50.603Z,98106.56
2022-08-22T09:25:06.066Z,98099.38
2022-08-22T09:27:45.937Z,98104.50
2022-08-22T09:30:18.538Z,98109.78
2022-08-22T09:33:04.209Z,98109.59
2022-08-22T09:35:33.834Z,98107.72
2022-08-22T09:38:38.120Z,98113.19
2022-08-22T09:41:14.943Z,98111.97
2022-08-22T09:43:59.631Z,98105.81
2022-08-22T09:46:37.022Z,98107.81
2022-08-22T09:49:36.088Z,98107.78
2022-08-22T09:52:14.403Z,98107.63
2022-08-22T09:54:57.185Z,98111.38
2022-08-22T09:57:52.680Z,98116.09
2022-08-22T10:00:27.834Z,98110.28
2022-08-22T10:03:19.690Z,98113.50
2022-08-22T10:05:57.683Z,98115.69
2022-08-22T10:08:45.930Z,98111.19
2022-08-22T10:11:19.582Z,98113.34
2022-08-22T10:14:05.343Z,98110.63
2022-08-22T10:16:56.707Z,98121.38
2022-08-22T10:19:33.833Z,98119.50
2022-08-22T10:22:22.941Z,98123.09
2022-08-22T10:25:28.604Z,98117.81
2022-08-22T10:28:14.359Z,98125.34
2022-08-22T10:30:47.899Z,98116.75
2022-08-22T10:33:22.787Z,98118.81
2022-08-22T10:36:20.031Z,98126.19
2022-08-22T10:38:53.426Z,98127.53
2022-08-22T10:41:38.807Z,98120.28
2022-08-22T10:44:24.608Z,98121.50
2022-08-22T10:47:11.994Z,98124.44
2022-08-22T10:50:00.964Z,98123.75
2022-08-22T10:52:32.150Z,98123.94
2022-08-22T10:55:10.074Z,98123.09
2022-08-22T10:58:10.749Z,98120.16
2022-08-22T11:00:56.973Z,98120.63
2022-08-22T11:03:41.773Z,98120.81
2022-08-22T11:06:24.937Z,98114.88
2022-08-22T11:08:57.918Z,98118.28
2022-08-22T11:11:36.236Z,98120.81
2022-08-22T11:14:22.262Z,98118.28
2022-08-22T11:17:31.076Z,98120.16
2022-08-22T11:20:03.708Z,98118.28
2022-08-22T11:22:48.208Z,98117.06
2022-08-22T11:25:38.443Z,98119.13
2022-08-22T11:28:36.446Z,98109.41
2022-08-22T11:31:08.777Z,98113.34
2022-08-22T11:33:49.177Z,98117.31
2022-08-22T11:36:26.217Z,98129.00
2022-08-22T11:39:18.015Z,98130.75
2022-08-22T11:41:53.532Z,98142.28
2022-08-22T11:44:50.170Z,98131.28
2022-08-22T11:47:28.138Z,98133.91
2022-08-22T11:50:23.764Z,98135.78
2022-08-22T11:53:16.028Z,98128.19
2022-08-22T11:56:00.131Z,98120.16
2022-08-22T11:59:04.430Z,98115.16
2022-08-22T12:01:59.534Z,98115.63
2022-08-22T12:04:53.870Z,98117.84
2022-08-22T12:07:39.631Z,98112.56
2022-08-22T12:10:19.834Z,98110.09
2022-08-22T12:13:08.668Z,98119.81
2022-08-22T12:15:48.963Z,98117.00
2022-08-22T12:18:39.314Z,98117.19
2022-08-22T12:21:10.320Z,98118.50
2022-08-22T12:24:11.168Z,98112.66
2022-08-22T12:27:00.666Z,98108.09
2022-08-22T12:29:44.724Z,98095.53
2022-08-22T12:32:50.103Z,98093.09
2022-08-22T12:35:50.722Z,98091.69
2022-08-22T12:38:28.390Z,98087.38
2022-08-22T12:41:37.471Z,98082.09
2022-08-22T12:44:22.898Z,98081.03
2022-08-22T12:47:03.165Z,98072.31
2022-08-22T12:49:56.710Z,98070.81
2022-08-22T12:52:52.530Z,98081.72
2022-08-22T12:55:45.900Z,98084.72
2022-08-22T12:58:18.936Z,98082.97
2022-08-22T13:00:48.339Z,98090.47
2022-08-22T13:03:35.785Z,98081.25
2022-08-22T13:06:37.819Z,98080.13
2022-08-22T13:09:18.702Z,98079.34
2022-08-22T13:11:50.431Z,98092.63
2022-08-22T13:14:25.695Z,98088.00
2022-08-22T13:17:00.908Z,98088.16
2022-08-22T13:19:54.075Z,98091.66
2022-08-22T13:22:27.464Z,98091.50
2022-08-22T13:25:25.960Z,98097.78
2022-08-22T13:28:10.135Z,98089.19
2022-08-22T13:30:40.145Z,98096.72
2022-08-22T13:33:14.735Z,98096.00
2022-08-22T13:35:54.158Z,98100.19
2022-08-22T13:38:32.789Z,98099.56
2022-08-22T13:41:02.804Z,98098.94
2022-08-22T13:43:36.050Z,98094.13
2022-08-22T13:46:06.669Z,98084.34
2022-08-22T13:48:51.204Z,98084.00
2022-08-22T13:51:40.277Z,98080.88
2022-08-22T13:54:11.259Z,98079.91
2022-08-22T13:57:10.962Z,98079.88
2022-08-22T13:59:52.067Z,98081.72
2022-08-22T14:02:43.477Z,98088.41
2022-08-22T14:05:18.882Z,98088.06
2022-08-22T14:08:06.644Z,98085.94
2022-08-22T14:10:55.054Z,98079.25
2022-08-22T14:13:24.231Z,98073.59
2022-08-22T14:16:07.293Z,98072.59
2022-08-22T14:18:45.634Z,98075.41
2022-08-22T14:21:26.134Z,98076.78
2022-08-22T14:24:18.998Z,98063.41
2022-08-22T14:26:54.082Z,98066.19
2022-08-22T14:29:31.870Z,98074.22
2022-08-22T14:32:22.559Z,98063.16
2022-08-22T14:35:21.477Z,98072.41
2022-08-22T14:37:54.410Z,98072.09
2022-08-22T14:40:36.841Z,98076.44
2022-08-22T14:43:22.564Z,98068.34
2022-08-22T14:46:02.154Z,98074.72
2022-08-22T14:48:39.338Z,98074.91
2022-08-22T14:51:21.214Z,98080.59
2022-08-22T14:53:50.211Z,98081.19
2022-08-22T14:56:25.686Z,98076.66
2022-08-22T14:58:58.238Z,98070.50
2022-08-22T15:01:29.696Z,98064.81
2022-08-22T15:04:10.516Z,98058.88
2022-08-22T15:06:48.113Z,98062.88
2022-08-22T15:09:33.627Z,98056.91
2022-08-22T15:12:05.793Z,98066.97
2022-08-22T15:14:38.361Z,98065.22
2022-08-22T15:17:08.997Z,98067.97
2022-08-22T15:19:46.420Z,98068.59
2022-08-22T15:22:21.544Z,98073.25
2022-08-22T15:25:04.445Z,98076.19
2022-08-22T15:27:34.986Z,98078.88
2022-08-22T15:30:20.684Z,98083.69
2022-08-22T15:32:49.193Z,98085.69
2022-08-22T15:35:31.652Z,98081.00
2022-08-22T15:38:03.091Z,98083.25
2022-08-22T15:40:42.089Z,98073.25
2022-08-22T15:43:21.880Z,98083.31
2022-08-22T15:45:52.471Z,98084.25
2022-08-22T15:48:36.711Z,98087.66
2022-08-22T15:51:10.745Z,98074.44
2022-08-22T15:53:43.824Z,98086.81
2022-08-22T15:56:13.339Z,98093.97
2022-08-22T15:58:49.530Z,98092.59
2022-08-22T16:01:19.167Z,98101.03
2022-08-22T16:04:01.330Z,98095.13
2022-08-22T16:06:39.897Z,98084.56
2022-08-22T16:09:29.726Z,98083.22
2022-08-22T16:11:58.930Z,98082.09
2022-08-22T16:14:34.367Z,98093.00
2022-08-22T16:17:09.442Z,98100.94
2022-08-22T16:19:38.314Z,98107.03
2022-08-22T16:22:08.195Z,98104.22
2022-08-22T16:24:56.539Z,98111.09
2022-08-22T16:27:25.917Z,98106.41
2022-08-22T16:30:08.173Z,98099.78
2022-08-22T16:32:36.100Z,98096.97
2022-08-22T16:35:03.240Z,98099.63
2022-08-22T16:37:43.038Z,98101.22
2022-08-22T16:40:17.279Z,98105.88
2022-08-22T16:42:49.175Z,98100.03
2022-08-22T16:45:36.642Z,98097.28
2022-08-22T16:48:36.750Z,98089.84
2022-08-22T16:51:18.612Z,98101.91
2022-08-22T16:54:03.805Z,98109.94
2022-08-22T16:56:39.952Z,98110.94
2022-08-22T16:59:38.579Z,98112.19
2022-08-22T17:02:14.184Z,98112.56
2022-08-22T17:04:55.550Z,98110.88
2022-08-22T17:07:51.740Z,98101.13
2022-08-22T17:10:27.058Z,98098.97
2022-08-22T17:13:22.344Z,98117.28
2022-08-22T17:16:21.048Z,98119.63
2022-08-22T17:18:53.597Z,98118.03
2022-08-22T17:21:29.561Z,98109.81
2022-08-22T17:24:09.152Z,98102.47
2022-08-22T17:27:06.202Z,98089.13
2022-08-22T17:30:02.644Z,98090.56
2022-08-22T17:32:58.288Z,98095.84
2022-08-22T17:35:30.534Z,98098.97
2022-08-22T17:38:00.080Z,98104.81
2022-08-22T17:40:53.234Z,98112.34
2022-08-22T17:43:52.302Z,98112.75
2022-08-22T17:46:37.690Z,98116.03
2022-08-22T17:49:41.318Z,98118.50
2022-08-22T17:52:16.048Z,98116.13
2022-08-22T17:54:57.231Z,98131.22
2022-08-22T17:57:47.862Z,98138.94
2022-08-22T18:00:31.512Z,98134.72
2022-08-22T18:03:07.153Z,98132.16
2022-08-22T18:05:48.894Z,98134.72
2022-08-22T18:08:38.290Z,98142.25
2022-08-22T18:11:24.883Z,98148.25
2022-08-22T18:13:57.302Z,98153.03
2022-08-22T18:16:36.090Z,98160.41
2022-08-22T18:19:24.041Z,98153.91
2022-08-22T18:22:06.822Z,98159.75
2022-08-22T18:24:37.135Z,98159.44
2022-08-22T18:27:41.159Z,98164.25
2022-08-22T18:30:13.647Z,98138.28
2022-08-22T18:32:55.695Z,98148.56
2022-08-22T18:35:32.923Z,98140.22
2022-08-22T18:38:19.604Z,98148.81
2022-08-22T18:40:54.431Z,98150.88
2022-08-22T18:43:36.278Z,98142.00
2022-08-22T18:46:25.299Z,98140.84
2022-08-22T18:49:14.033Z,98155.44
2022-08-22T18:51:41.673Z,98144.34
2022-08-22T18:54:08.389Z,98138.88
2022-08-22T18:57:08.469Z,98140.59
2022-08-22T18:59:35.118Z,98145.19
2022-08-22T19:02:41.062Z,98141.63
2022-08-22T19:05:22.996Z,98147.47
2022-08-22T19:08:10.761Z,98151.22
2022-08-22T19:10:54.435Z,98153.97
2022-08-22T19:13:39.235Z,98150.22
2022-08-22T19:16:33.905Z,98141.13
2022-08-22T19:19:07.969Z,98139.28
2022-08-22T19:22:19.342Z,98131.53
2022-08-22T19:25:12.623Z,98137.88
2022-08-22T19:27:57.029Z,98124.88
2022-08-22T19:30:39.473Z,98127.44
2022-08-22T19:33:11.501Z,98127.03
2022-08-22T19:35:50.967Z,98120.16
2022-08-22T19:38:35.939Z,98119.16
2022-08-22T19:41:03.377Z,98120.00
2022-08-22T19:43:35.655Z,98115.19
2022-08-22T19:46:12.077Z,98109.88
2022-08-22T19:48:50.416Z,98118.75
2022-08-22T19:51:20.436Z,98118.22
2022-08-22T19:54:02.313Z,98117.19
2022-08-22T19:56:47.413Z,98121.47
2022-08-22T20:00:00.324Z,98119.56
2022-08-22T20:02:51.633Z,98120.22
2022-08-22T20:05:53.652Z,98118.81
2022-08-22T20:08:54.774Z,98114.88
2022-08-22T20:12:08.490Z,98123.75
2022-08-22T20:14:40.210Z,98109.88
2022-08-22T20:17:36.838Z,98106.13
2022-08-22T20:20:17.824Z,98097.25
2022-08-22T20:23:03.525Z,98100.66
2022-08-22T20:25:45.713Z,98099.63
2022-08-22T20:28:30.158Z,98096.88
2022-08-22T20:31:00.894Z,98094.34
2022-08-22T20:33:32.515Z,98102.06
2022-08-22T20:36:05.268Z,98101.22
2022-08-22T20:38:55.396Z,98091.47
2022-08-22T20:41:29.076Z,98098.00
2022-08-22T20:44:14.519Z,98089.78
2022-08-22T20:46:55.666Z,98095.25
2022-08-22T20:49:42.142Z,98097.13
2022-08-22T20:52:21.552Z,98093.53
2022-08-22T20:55:00.065Z,98096.09
2022-08-22T20:57:27.530Z,98107.88
2022-08-22T20:59:58.194Z,98105.31
2022-08-22T21:02:30.319Z,98111.00
2022-08-22T21:05:22.514Z,98119.56
2022-08-22T21:08:06.932Z,98121.81
2022-08-22T21:10:55.229Z,98112.44
2022-08-22T21:13:23.499Z,98123.28
2022-08-22T21:15:56.367Z,98111.19
2022-08-22T21:18:36.732Z,98118.56
2022-08-22T21:21:08.021Z,98123.63
2022-08-22T21:23:43.067Z,98130.44
2022-08-22T21:26:20.955Z,98147.03
2022-08-22T21:29:14.327Z,98150.56
2022-08-22T21:31:50.554Z,98154.25
2022-08-22T21:34:34.180Z,98152.41
2022-08-22T21:37:11.689Z,98145.31
2022-08-22T21:39:51.374Z,98146.19
2022-08-22T21:42:40.043Z,98144.72
2022-08-22T21:47:40.066Z,98152.44
2022-08-22T21:50:23.527Z,98141.41
2022-08-22T21:52:56.366Z,98156.06
2022-08-22T21:55:29.311Z,98147.53
2022-08-22T21:58:31.005Z,98139.69
2022-08-22T22:01:24.847Z,98149.78
2022-08-22T22:03:52.118Z,98154.91
2022-08-22T22:06:18.808Z,98148.91
2022-08-22T22:08:46.168Z,98131.69
2022-08-22T22:11:14.868Z,98118.72
2022-08-22T22:13:43.092Z,98117.34
2022-08-22T22:16:12.771Z,98092.28
2022-08-22T22:18:39.514Z,98073.69
2022-08-22T22:21:06.369Z,98085.31
2022-08-22T22:23:33.061Z,98081.53
2022-08-22T22:26:02.707Z,98095.84
2022-08-22T22:28:37.499Z,98090.91
2022-08-22T22:31:05.213Z,98083.56
2022-08-22T22:33:41.016Z,98079.31
2022-08-22T22:36:16.219Z,98087.34
2022-08-22T22:38:43.382Z,98088.84
2022-08-22T22:41:11.423Z,98099.94
2022-08-22T22:43:39.216Z,98104.56
2022-08-22T22:46:06.526Z,98107.97
2022-08-22T22:48:33.773Z,98108.63
2022-08-22T22:51:08.662Z,98100.44
2022-08-22T22:53:38.387Z,98092.44
2022-08-22T22:56:11.617Z,98088.31
2022-08-22T22:58:38.576Z,98081.84
2022-08-22T23:01:10.131Z,98081.00
2022-08-22T23:03:37.003Z,98073.66
2022-08-22T23:06:03.773Z,98066.97
2022-08-22T23:08:30.790Z,98067.84
2022-08-22T23:10:58.697Z,98067.84
2022-08-22T23:13:26.631Z,98064.97
2022-08-22T23:15:53.637Z,98062.06
2022-08-22T23:18:20.924Z,98071.97
2022-08-22T23:20:53.947Z,98076.88
2022-08-22T23:23:20.613Z,98090.72
2022-08-22T23:25:47.544Z,98091.75
2022-08-22T23:28:14.237Z,98090.88
2022-08-22T23:30:42.160Z,98082.69
2022-08-22T23:33:08.852Z,98086.09
2022-08-22T23:35:35.538Z,98088.81
2022-08-22T23:38:02.278Z,98077.91
2022-08-22T23:40:29.044Z,98077.59
2022-08-22T23:42:57.044Z,98074.88
2022-08-22T23:45:24.662Z,98067.19
2022-08-22T23:47:51.338Z,98065.47
2022-08-22T23:50:18.040Z,98065.66
2022-08-22T23:52:45.647Z,98063.09
2022-08-22T23:55:14.106Z,98061.03
2022-08-22T23:57:40.772Z,98058.47
